sensor_id;sensor_type;location;lat;lon;timestamp;temperature;humidity
14908;DHT22;7545;52.092;7.006;2022-07-25T00:02:23;23.00;99.90
14908;DHT22;7545;52.092;7.006;2022-07-25T00:04:49;23.00;99.90
14908;DHT22;7545;52.092;7.006;2022-07-25T00:07:15;23.00;99.90
14908;DHT22;7545;52.092;7.006;2022-07-25T00:09:41;22.90;99.90
14908;DHT22;7545;52.092;7.006;2022-07-25T00:12:07;22.90;99.90
14908;DHT22;7545;52.092;7.006;2022-07-25T00:14:32;22.80;99.90
14908;DHT22;7545;52.092;7.006;2022-07-25T00:16:58;22.80;99.90
14908;DHT22;7545;52.092;7.006;2022-07-25T00:19:23;22.80;99.90
14908;DHT22;7545;52.092;7.006;2022-07-25T00:21:49;22.70;99.90
14908;DHT22;7545;52.092;7.006;2022-07-25T00:24:16;22.70;99.90
14908;DHT22;7545;52.092;7.006;2022-07-25T00:26:41;22.70;99.90
14908;DHT22;7545;52.092;7.006;2022-07-25T00:29:07;22.70;99.90
14908;DHT22;7545;52.092;7.006;2022-07-25T00:31:33;22.60;99.90
14908;DHT22;7545;52.092;7.006;2022-07-25T00:33:58;22.60;99.90
14908;DHT22;7545;52.092;7.006;2022-07-25T00:36:24;22.60;99.90
14908;DHT22;7545;52.092;7.006;2022-07-25T00:38:49;22.50;99.90
14908;DHT22;7545;52.092;7.006;2022-07-25T00:41:15;22.50;99.90
14908;DHT22;7545;52.092;7.006;2022-07-25T00:43:44;22.60;99.90
14908;DHT22;7545;52.092;7.006;2022-07-25T00:46:15;22.50;99.90
14908;DHT22;7545;52.092;7.006;2022-07-25T00:48:41;22.50;99.90
14908;DHT22;7545;52.092;7.006;2022-07-25T00:51:07;22.40;99.90
14908;DHT22;7545;52.092;7.006;2022-07-25T00:53:35;22.40;99.90
14908;DHT22;7545;52.092;7.006;2022-07-25T00:56:00;22.40;99.90
14908;DHT22;7545;52.092;7.006;2022-07-25T00:58:26;22.30;99.90
14908;DHT22;7545;52.092;7.006;2022-07-25T01:00:52;22.30;99.90
14908;DHT22;7545;52.092;7.006;2022-07-25T01:03:17;22.30;99.90
14908;DHT22;7545;52.092;7.006;2022-07-25T01:05:43;22.30;99.90
14908;DHT22;7545;52.092;7.006;2022-07-25T01:08:09;22.30;99.90
14908;DHT22;7545;52.092;7.006;2022-07-25T01:10:35;22.30;99.90
14908;DHT22;7545;52.092;7.006;2022-07-25T01:13:01;22.20;99.90
14908;DHT22;7545;52.092;7.006;2022-07-25T01:15:27;22.20;99.90
14908;DHT22;7545;52.092;7.006;2022-07-25T01:17:52;22.20;99.90
14908;DHT22;7545;52.092;7.006;2022-07-25T01:20:27;22.10;99.90
14908;DHT22;7545;52.092;7.006;2022-07-25T01:22:53;22.20;99.90
14908;DHT22;7545;52.092;7.006;2022-07-25T01:25:20;22.10;99.90
14908;DHT22;7545;52.092;7.006;2022-07-25T01:27:46;22.20;99.90
14908;DHT22;7545;52.092;7.006;2022-07-25T01:30:14;22.10;99.90
14908;DHT22;7545;52.092;7.006;2022-07-25T01:32:40;22.10;99.90
14908;DHT22;7545;52.092;7.006;2022-07-25T01:35:07;22.10;99.90
14908;DHT22;7545;52.092;7.006;2022-07-25T01:37:33;22.10;99.90
14908;DHT22;7545;52.092;7.006;2022-07-25T01:39:59;22.00;99.90
14908;DHT22;7545;52.092;7.006;2022-07-25T01:42:25;22.10;99.90
14908;DHT22;7545;52.092;7.006;2022-07-25T01:44:51;22.00;99.90
14908;DHT22;7545;52.092;7.006;2022-07-25T01:47:16;22.00;99.90
14908;DHT22;7545;52.092;7.006;2022-07-25T01:49:43;22.10;99.90
14908;DHT22;7545;52.092;7.006;2022-07-25T01:52:09;22.00;99.90
14908;DHT22;7545;52.092;7.006;2022-07-25T01:54:34;22.00;99.90
14908;DHT22;7545;52.092;7.006;2022-07-25T01:57:00;22.00;99.90
14908;DHT22;7545;52.092;7.006;2022-07-25T01:59:26;22.00;99.90
14908;DHT22;7545;52.092;7.006;2022-07-25T02:01:52;22.00;99.90
14908;DHT22;7545;52.092;7.006;2022-07-25T02:04:17;22.00;99.90
14908;DHT22;7545;52.092;7.006;2022-07-25T02:06:43;21.90;99.90
14908;DHT22;7545;52.092;7.006;2022-07-25T02:09:09;21.90;99.90
14908;DHT22;7545;52.092;7.006;2022-07-25T02:11:35;21.90;99.90
14908;DHT22;7545;52.092;7.006;2022-07-25T02:14:01;21.90;99.90
14908;DHT22;7545;52.092;7.006;2022-07-25T02:16:27;21.90;99.90
14908;DHT22;7545;52.092;7.006;2022-07-25T02:18:53;21.90;99.90
14908;DHT22;7545;52.092;7.006;2022-07-25T02:21:18;21.80;99.90
14908;DHT22;7545;52.092;7.006;2022-07-25T02:23:44;21.80;99.90
14908;DHT22;7545;52.092;7.006;2022-07-25T02:26:11;21.80;99.90
14908;DHT22;7545;52.092;7.006;2022-07-25T02:28:37;21.80;99.90
14908;DHT22;7545;52.092;7.006;2022-07-25T02:31:02;21.80;99.90
14908;DHT22;7545;52.092;7.006;2022-07-25T02:33:28;21.80;99.90
14908;DHT22;7545;52.092;7.006;2022-07-25T02:35:54;21.70;99.90
14908;DHT22;7545;52.092;7.006;2022-07-25T02:38:20;21.80;99.90
14908;DHT22;7545;52.092;7.006;2022-07-25T02:40:46;21.80;99.90
14908;DHT22;7545;52.092;7.006;2022-07-25T02:43:12;21.80;99.90
14908;DHT22;7545;52.092;7.006;2022-07-25T02:45:38;21.80;99.90
14908;DHT22;7545;52.092;7.006;2022-07-25T02:48:04;21.80;99.90
14908;DHT22;7545;52.092;7.006;2022-07-25T02:50:30;21.80;99.90
14908;DHT22;7545;52.092;7.006;2022-07-25T02:52:55;21.80;99.90
14908;DHT22;7545;52.092;7.006;2022-07-25T02:55:21;21.80;99.90
14908;DHT22;7545;52.092;7.006;2022-07-25T02:57:47;21.80;99.90
14908;DHT22;7545;52.092;7.006;2022-07-25T03:00:13;21.80;99.90
14908;DHT22;7545;52.092;7.006;2022-07-25T03:02:39;21.80;99.90
14908;DHT22;7545;52.092;7.006;2022-07-25T03:05:07;21.80;99.90
14908;DHT22;7545;52.092;7.006;2022-07-25T03:07:33;21.80;99.90
14908;DHT22;7545;52.092;7.006;2022-07-25T03:10:00;21.80;99.90
14908;DHT22;7545;52.092;7.006;2022-07-25T03:12:26;21.80;99.90
14908;DHT22;7545;52.092;7.006;2022-07-25T03:14:51;21.80;99.90
14908;DHT22;7545;52.092;7.006;2022-07-25T03:17:17;21.80;99.90
14908;DHT22;7545;52.092;7.006;2022-07-25T03:19:43;21.90;99.90
14908;DHT22;7545;52.092;7.006;2022-07-25T03:22:08;21.90;99.90
14908;DHT22;7545;52.092;7.006;2022-07-25T03:24:34;21.90;99.90
14908;DHT22;7545;52.092;7.006;2022-07-25T03:27:00;21.90;99.90
14908;DHT22;7545;52.092;7.006;2022-07-25T03:29:25;21.90;99.90
14908;DHT22;7545;52.092;7.006;2022-07-25T03:31:51;21.90;99.90
14908;DHT22;7545;52.092;7.006;2022-07-25T03:34:17;21.90;99.90
14908;DHT22;7545;52.092;7.006;2022-07-25T03:36:42;21.90;99.90
14908;DHT22;7545;52.092;7.006;2022-07-25T03:39:08;21.90;99.90
14908;DHT22;7545;52.092;7.006;2022-07-25T03:41:33;21.90;99.90
14908;DHT22;7545;52.092;7.006;2022-07-25T03:43:59;21.90;99.90
14908;DHT22;7545;52.092;7.006;2022-07-25T03:46:25;21.90;99.90
14908;DHT22;7545;52.092;7.006;2022-07-25T03:48:50;21.90;99.90
14908;DHT22;7545;52.092;7.006;2022-07-25T03:51:16;21.90;99.90
14908;DHT22;7545;52.092;7.006;2022-07-25T03:53:42;21.90;99.90
14908;DHT22;7545;52.092;7.006;2022-07-25T03:56:29;21.90;99.90
14908;DHT22;7545;52.092;7.006;2022-07-25T03:58:55;21.90;99.90
14908;DHT22;7545;52.092;7.006;2022-07-25T04:01:21;21.90;99.90
14908;DHT22;7545;52.092;7.006;2022-07-25T04:03:47;21.90;99.90
14908;DHT22;7545;52.092;7.006;2022-07-25T04:06:12;21.90;99.90
14908;DHT22;7545;52.092;7.006;2022-07-25T04:08:38;22.00;99.90
14908;DHT22;7545;52.092;7.006;2022-07-25T04:11:04;21.90;99.90
14908;DHT22;7545;52.092;7.006;2022-07-25T04:13:29;21.90;99.90
14908;DHT22;7545;52.092;7.006;2022-07-25T04:15:55;22.00;99.90
14908;DHT22;7545;52.092;7.006;2022-07-25T04:18:21;22.00;99.90
14908;DHT22;7545;52.092;7.006;2022-07-25T04:20:47;22.00;99.90
14908;DHT22;7545;52.092;7.006;2022-07-25T04:23:13;22.10;99.90
14908;DHT22;7545;52.092;7.006;2022-07-25T04:25:38;22.10;99.90
14908;DHT22;7545;52.092;7.006;2022-07-25T04:28:04;22.10;99.90
14908;DHT22;7545;52.092;7.006;2022-07-25T04:30:30;22.20;99.90
14908;DHT22;7545;52.092;7.006;2022-07-25T04:32:55;22.20;99.90
14908;DHT22;7545;52.092;7.006;2022-07-25T04:35:21;22.20;99.90
14908;DHT22;7545;52.092;7.006;2022-07-25T04:37:47;22.30;99.90
14908;DHT22;7545;52.092;7.006;2022-07-25T04:40:13;22.30;99.90
14908;DHT22;7545;52.092;7.006;2022-07-25T04:42:39;22.30;99.90
14908;DHT22;7545;52.092;7.006;2022-07-25T04:45:04;22.30;99.90
14908;DHT22;7545;52.092;7.006;2022-07-25T04:47:30;22.40;99.90
14908;DHT22;7545;52.092;7.006;2022-07-25T04:49:56;22.40;99.90
14908;DHT22;7545;52.092;7.006;2022-07-25T04:52:21;22.40;99.90
14908;DHT22;7545;52.092;7.006;2022-07-25T04:54:47;22.40;99.90
14908;DHT22;7545;52.092;7.006;2022-07-25T04:57:13;22.30;99.90
14908;DHT22;7545;52.092;7.006;2022-07-25T04:59:38;22.40;99.90
14908;DHT22;7545;52.092;7.006;2022-07-25T05:02:04;22.40;99.90
14908;DHT22;7545;52.092;7.006;2022-07-25T05:04:30;22.40;99.90
14908;DHT22;7545;52.092;7.006;2022-07-25T05:06:55;22.40;99.90
14908;DHT22;7545;52.092;7.006;2022-07-25T05:09:21;22.40;99.90
14908;DHT22;7545;52.092;7.006;2022-07-25T05:11:47;22.50;99.90
14908;DHT22;7545;52.092;7.006;2022-07-25T05:14:12;22.50;99.90
14908;DHT22;7545;52.092;7.006;2022-07-25T05:16:38;22.60;99.90
14908;DHT22;7545;52.092;7.006;2022-07-25T05:19:04;22.60;99.90
14908;DHT22;7545;52.092;7.006;2022-07-25T05:21:29;22.60;99.90
14908;DHT22;7545;52.092;7.006;2022-07-25T05:23:55;22.60;99.90
14908;DHT22;7545;52.092;7.006;2022-07-25T05:26:21;22.60;99.90
14908;DHT22;7545;52.092;7.006;2022-07-25T05:28:46;22.70;99.90
14908;DHT22;7545;52.092;7.006;2022-07-25T05:31:12;22.70;99.90
14908;DHT22;7545;52.092;7.006;2022-07-25T05:33:38;22.70;99.90
14908;DHT22;7545;52.092;7.006;2022-07-25T05:36:04;22.70;99.90
14908;DHT22;7545;52.092;7.006;2022-07-25T05:38:30;22.80;99.90
14908;DHT22;7545;52.092;7.006;2022-07-25T05:40:56;22.80;99.90
14908;DHT22;7545;52.092;7.006;2022-07-25T05:43:21;22.80;99.90
14908;DHT22;7545;52.092;7.006;2022-07-25T05:45:47;22.80;99.90
14908;DHT22;7545;52.092;7.006;2022-07-25T05:48:13;22.80;99.90
14908;DHT22;7545;52.092;7.006;2022-07-25T05:50:39;22.90;99.90
14908;DHT22;7545;52.092;7.006;2022-07-25T05:53:05;22.90;99.90
14908;DHT22;7545;52.092;7.006;2022-07-25T05:55:30;22.90;99.90
14908;DHT22;7545;52.092;7.006;2022-07-25T05:57:56;23.00;99.90
14908;DHT22;7545;52.092;7.006;2022-07-25T06:00:22;23.00;99.90
14908;DHT22;7545;52.092;7.006;2022-07-25T06:02:47;23.00;99.90
14908;DHT22;7545;52.092;7.006;2022-07-25T06:05:13;23.10;99.90
14908;DHT22;7545;52.092;7.006;2022-07-25T06:07:39;23.10;99.90
14908;DHT22;7545;52.092;7.006;2022-07-25T06:10:05;23.10;99.90
14908;DHT22;7545;52.092;7.006;2022-07-25T06:12:31;23.20;99.90
14908;DHT22;7545;52.092;7.006;2022-07-25T06:14:59;23.20;99.90
14908;DHT22;7545;52.092;7.006;2022-07-25T06:17:24;23.20;99.90
14908;DHT22;7545;52.092;7.006;2022-07-25T06:19:50;23.30;99.90
14908;DHT22;7545;52.092;7.006;2022-07-25T06:22:16;23.20;99.90
14908;DHT22;7545;52.092;7.006;2022-07-25T06:24:44;23.30;99.90
14908;DHT22;7545;52.092;7.006;2022-07-25T06:27:09;23.30;99.90
14908;DHT22;7545;52.092;7.006;2022-07-25T06:29:36;23.30;99.90
14908;DHT22;7545;52.092;7.006;2022-07-25T06:32:02;23.40;99.90
14908;DHT22;7545;52.092;7.006;2022-07-25T06:34:27;23.40;99.90
14908;DHT22;7545;52.092;7.006;2022-07-25T06:36:53;23.50;99.90
14908;DHT22;7545;52.092;7.006;2022-07-25T06:39:19;23.50;99.90
14908;DHT22;7545;52.092;7.006;2022-07-25T06:41:44;23.50;99.90
14908;DHT22;7545;52.092;7.006;2022-07-25T06:44:10;23.60;99.90
14908;DHT22;7545;52.092;7.006;2022-07-25T06:46:36;23.60;99.90
14908;DHT22;7545;52.092;7.006;2022-07-25T06:49:01;23.70;99.90
14908;DHT22;7545;52.092;7.006;2022-07-25T06:51:27;23.70;99.90
14908;DHT22;7545;52.092;7.006;2022-07-25T06:53:53;23.70;99.90
14908;DHT22;7545;52.092;7.006;2022-07-25T06:56:18;23.80;99.90
14908;DHT22;7545;52.092;7.006;2022-07-25T06:58:44;23.80;99.90
14908;DHT22;7545;52.092;7.006;2022-07-25T07:01:10;23.90;99.90
14908;DHT22;7545;52.092;7.006;2022-07-25T07:03:36;23.90;99.90
14908;DHT22;7545;52.092;7.006;2022-07-25T07:06:07;24.00;99.90
14908;DHT22;7545;52.092;7.006;2022-07-25T07:08:34;24.10;99.90
14908;DHT22;7545;52.092;7.006;2022-07-25T07:11:00;24.10;99.90
14908;DHT22;7545;52.092;7.006;2022-07-25T07:13:26;24.20;99.90
14908;DHT22;7545;52.092;7.006;2022-07-25T07:15:52;24.30;99.90
14908;DHT22;7545;52.092;7.006;2022-07-25T07:18:19;24.30;99.90
14908;DHT22;7545;52.092;7.006;2022-07-25T07:20:45;24.40;99.90
14908;DHT22;7545;52.092;7.006;2022-07-25T07:23:11;24.50;99.90
14908;DHT22;7545;52.092;7.006;2022-07-25T07:25:37;24.50;99.90
14908;DHT22;7545;52.092;7.006;2022-07-25T07:28:03;24.50;99.90
14908;DHT22;7545;52.092;7.006;2022-07-25T07:30:30;24.60;99.90
14908;DHT22;7545;52.092;7.006;2022-07-25T07:32:56;24.60;99.90
14908;DHT22;7545;52.092;7.006;2022-07-25T07:35:22;24.60;99.90
14908;DHT22;7545;52.092;7.006;2022-07-25T07:37:50;24.60;99.90
14908;DHT22;7545;52.092;7.006;2022-07-25T07:40:16;24.60;99.90
14908;DHT22;7545;52.092;7.006;2022-07-25T07:42:45;24.60;99.90
14908;DHT22;7545;52.092;7.006;2022-07-25T07:47:40;24.60;99.90
14908;DHT22;7545;52.092;7.006;2022-07-25T07:50:06;24.60;99.90
14908;DHT22;7545;52.092;7.006;2022-07-25T07:52:32;24.70;99.90
14908;DHT22;7545;52.092;7.006;2022-07-25T07:54:58;24.70;99.90
14908;DHT22;7545;52.092;7.006;2022-07-25T07:57:42;24.70;99.90
14908;DHT22;7545;52.092;7.006;2022-07-25T08:00:08;24.80;99.90
14908;DHT22;7545;52.092;7.006;2022-07-25T08:02:42;24.80;99.90
14908;DHT22;7545;52.092;7.006;2022-07-25T08:05:08;24.80;99.90
14908;DHT22;7545;52.092;7.006;2022-07-25T08:07:33;24.90;99.90
14908;DHT22;7545;52.092;7.006;2022-07-25T08:09:59;25.00;99.90
14908;DHT22;7545;52.092;7.006;2022-07-25T08:12:25;25.00;99.90
14908;DHT22;7545;52.092;7.006;2022-07-25T08:14:50;25.10;99.90
14908;DHT22;7545;52.092;7.006;2022-07-25T08:17:16;25.10;99.90
14908;DHT22;7545;52.092;7.006;2022-07-25T08:19:41;25.10;99.90
14908;DHT22;7545;52.092;7.006;2022-07-25T08:22:07;25.20;99.90
14908;DHT22;7545;52.092;7.006;2022-07-25T08:24:33;25.20;99.90
14908;DHT22;7545;52.092;7.006;2022-07-25T08:26:58;25.20;99.90
14908;DHT22;7545;52.092;7.006;2022-07-25T08:29:24;25.30;99.90
14908;DHT22;7545;52.092;7.006;2022-07-25T08:31:49;25.30;99.90
14908;DHT22;7545;52.092;7.006;2022-07-25T08:34:15;25.40;99.90
14908;DHT22;7545;52.092;7.006;2022-07-25T08:36:41;25.40;99.90
14908;DHT22;7545;52.092;7.006;2022-07-25T08:39:06;25.40;99.90
14908;DHT22;7545;52.092;7.006;2022-07-25T08:41:32;25.50;99.90
14908;DHT22;7545;52.092;7.006;2022-07-25T08:43:59;25.50;99.90
14908;DHT22;7545;52.092;7.006;2022-07-25T08:46:26;25.50;99.90
14908;DHT22;7545;52.092;7.006;2022-07-25T08:48:55;25.60;99.90
14908;DHT22;7545;52.092;7.006;2022-07-25T08:51:21;25.60;99.90
14908;DHT22;7545;52.092;7.006;2022-07-25T08:53:47;25.70;99.90
14908;DHT22;7545;52.092;7.006;2022-07-25T08:56:13;25.80;99.90
14908;DHT22;7545;52.092;7.006;2022-07-25T08:58:39;25.80;99.90
14908;DHT22;7545;52.092;7.006;2022-07-25T09:01:05;26.00;99.90
14908;DHT22;7545;52.092;7.006;2022-07-25T09:03:32;26.10;99.90
14908;DHT22;7545;52.092;7.006;2022-07-25T09:05:57;26.10;99.90
14908;DHT22;7545;52.092;7.006;2022-07-25T09:08:23;26.20;99.90
14908;DHT22;7545;52.092;7.006;2022-07-25T09:10:51;26.20;99.90
14908;DHT22;7545;52.092;7.006;2022-07-25T09:13:18;26.30;99.90
14908;DHT22;7545;52.092;7.006;2022-07-25T09:15:52;26.30;99.90
14908;DHT22;7545;52.092;7.006;2022-07-25T09:18:22;26.40;99.90
14908;DHT22;7545;52.092;7.006;2022-07-25T09:20:59;26.40;99.90
14908;DHT22;7545;52.092;7.006;2022-07-25T09:23:27;26.50;99.90
14908;DHT22;7545;52.092;7.006;2022-07-25T09:26:11;26.50;99.90
14908;DHT22;7545;52.092;7.006;2022-07-25T09:28:40;26.60;99.90
14908;DHT22;7545;52.092;7.006;2022-07-25T09:31:06;26.60;99.90
14908;DHT22;7545;52.092;7.006;2022-07-25T09:33:42;26.60;99.90
14908;DHT22;7545;52.092;7.006;2022-07-25T09:36:09;26.70;99.90
14908;DHT22;7545;52.092;7.006;2022-07-25T09:38:36;26.70;99.90
14908;DHT22;7545;52.092;7.006;2022-07-25T09:41:02;26.80;99.90
14908;DHT22;7545;52.092;7.006;2022-07-25T09:43:41;26.70;99.90
14908;DHT22;7545;52.092;7.006;2022-07-25T09:46:08;26.80;99.90
14908;DHT22;7545;52.092;7.006;2022-07-25T09:48:35;26.80;99.90
14908;DHT22;7545;52.092;7.006;2022-07-25T09:51:02;26.90;99.90
14908;DHT22;7545;52.092;7.006;2022-07-25T09:53:28;27.00;99.90
14908;DHT22;7545;52.092;7.006;2022-07-25T09:55:54;27.00;99.90
14908;DHT22;7545;52.092;7.006;2022-07-25T09:58:27;27.10;99.90
14908;DHT22;7545;52.092;7.006;2022-07-25T10:00:59;27.20;99.90
14908;DHT22;7545;52.092;7.006;2022-07-25T10:03:44;27.20;99.90
14908;DHT22;7545;52.092;7.006;2022-07-25T10:09:18;27.40;99.90
14908;DHT22;7545;52.092;7.006;2022-07-25T10:12:04;27.50;99.90
14908;DHT22;7545;52.092;7.006;2022-07-25T10:14:31;27.50;99.90
14908;DHT22;7545;52.092;7.006;2022-07-25T10:16:58;27.50;99.90
14908;DHT22;7545;52.092;7.006;2022-07-25T10:22:03;27.60;99.90
14908;DHT22;7545;52.092;7.006;2022-07-25T10:24:34;27.70;99.90
14908;DHT22;7545;52.092;7.006;2022-07-25T10:27:07;27.70;99.90
14908;DHT22;7545;52.092;7.006;2022-07-25T10:29:34;27.70;99.90
14908;DHT22;7545;52.092;7.006;2022-07-25T10:32:12;27.70;99.90
14908;DHT22;7545;52.092;7.006;2022-07-25T10:34:39;27.70;99.90
14908;DHT22;7545;52.092;7.006;2022-07-25T10:37:16;27.70;99.90
14908;DHT22;7545;52.092;7.006;2022-07-25T10:39:45;27.80;99.90
14908;DHT22;7545;52.092;7.006;2022-07-25T10:42:20;27.80;99.90
14908;DHT22;7545;52.092;7.006;2022-07-25T10:44:53;27.90;99.90
14908;DHT22;7545;52.092;7.006;2022-07-25T10:47:25;27.90;99.90
14908;DHT22;7545;52.092;7.006;2022-07-25T10:49:56;28.00;99.90
14908;DHT22;7545;52.092;7.006;2022-07-25T10:52:26;28.00;99.90
14908;DHT22;7545;52.092;7.006;2022-07-25T10:54:57;28.00;99.90
14908;DHT22;7545;52.092;7.006;2022-07-25T10:57:24;28.10;99.90
14908;DHT22;7545;52.092;7.006;2022-07-25T10:59:50;28.20;99.90
14908;DHT22;7545;52.092;7.006;2022-07-25T11:02:16;28.30;99.90
14908;DHT22;7545;52.092;7.006;2022-07-25T11:04:43;28.30;99.90
14908;DHT22;7545;52.092;7.006;2022-07-25T11:07:11;28.40;99.90
14908;DHT22;7545;52.092;7.006;2022-07-25T11:09:37;28.50;99.90
14908;DHT22;7545;52.092;7.006;2022-07-25T11:12:04;28.60;99.90
14908;DHT22;7545;52.092;7.006;2022-07-25T11:19:44;28.70;99.90
14908;DHT22;7545;52.092;7.006;2022-07-25T11:22:17;28.70;99.90
14908;DHT22;7545;52.092;7.006;2022-07-25T11:24:44;28.70;99.90
14908;DHT22;7545;52.092;7.006;2022-07-25T11:27:18;28.70;99.90
14908;DHT22;7545;52.092;7.006;2022-07-25T11:29:44;28.70;99.90
14908;DHT22;7545;52.092;7.006;2022-07-25T11:32:11;28.60;99.90
14908;DHT22;7545;52.092;7.006;2022-07-25T11:34:42;28.70;99.90
14908;DHT22;7545;52.092;7.006;2022-07-25T11:37:10;28.80;99.90
14908;DHT22;7545;52.092;7.006;2022-07-25T11:39:38;28.90;99.90
14908;DHT22;7545;52.092;7.006;2022-07-25T11:42:10;28.80;99.90
14908;DHT22;7545;52.092;7.006;2022-07-25T11:44:56;28.90;99.90
14908;DHT22;7545;52.092;7.006;2022-07-25T11:47:30;28.90;99.90
14908;DHT22;7545;52.092;7.006;2022-07-25T11:50:01;28.90;99.90
14908;DHT22;7545;52.092;7.006;2022-07-25T11:52:29;28.90;99.90
14908;DHT22;7545;52.092;7.006;2022-07-25T11:54:57;29.00;99.90
14908;DHT22;7545;52.092;7.006;2022-07-25T11:57:25;29.00;99.90
14908;DHT22;7545;52.092;7.006;2022-07-25T11:59:52;28.90;99.90
14908;DHT22;7545;52.092;7.006;2022-07-25T12:02:27;28.80;99.90
14908;DHT22;7545;52.092;7.006;2022-07-25T12:04:58;28.70;99.90
14908;DHT22;7545;52.092;7.006;2022-07-25T12:10:15;28.60;99.90
14908;DHT22;7545;52.092;7.006;2022-07-25T12:13:02;28.60;99.90
14908;DHT22;7545;52.092;7.006;2022-07-25T12:15:39;28.50;99.90
14908;DHT22;7545;52.092;7.006;2022-07-25T12:18:08;28.40;99.90
14908;DHT22;7545;52.092;7.006;2022-07-25T12:20:41;28.40;99.90
14908;DHT22;7545;52.092;7.006;2022-07-25T12:23:09;28.30;99.90
14908;DHT22;7545;52.092;7.006;2022-07-25T12:25:42;28.20;99.90
14908;DHT22;7545;52.092;7.006;2022-07-25T12:28:09;28.10;99.90
14908;DHT22;7545;52.092;7.006;2022-07-25T12:30:36;28.10;99.90
14908;DHT22;7545;52.092;7.006;2022-07-25T12:33:04;28.10;99.90
14908;DHT22;7545;52.092;7.006;2022-07-25T12:35:30;28.10;99.90
14908;DHT22;7545;52.092;7.006;2022-07-25T12:37:55;28.10;99.90
14908;DHT22;7545;52.092;7.006;2022-07-25T12:40:21;28.00;99.90
14908;DHT22;7545;52.092;7.006;2022-07-25T12:42:48;28.00;99.90
14908;DHT22;7545;52.092;7.006;2022-07-25T12:45:14;28.00;99.90
14908;DHT22;7545;52.092;7.006;2022-07-25T12:47:45;27.90;99.90
14908;DHT22;7545;52.092;7.006;2022-07-25T12:50:11;27.90;99.90
14908;DHT22;7545;52.092;7.006;2022-07-25T12:52:37;27.90;99.90
14908;DHT22;7545;52.092;7.006;2022-07-25T12:55:05;27.90;99.90
14908;DHT22;7545;52.092;7.006;2022-07-25T12:57:31;27.70;99.90
14908;DHT22;7545;52.092;7.006;2022-07-25T12:59:56;27.70;99.90
14908;DHT22;7545;52.092;7.006;2022-07-25T13:02:22;27.70;99.90
14908;DHT22;7545;52.092;7.006;2022-07-25T13:04:48;27.70;99.90
14908;DHT22;7545;52.092;7.006;2022-07-25T13:07:14;27.70;99.90
14908;DHT22;7545;52.092;7.006;2022-07-25T13:09:40;27.70;99.90
14908;DHT22;7545;52.092;7.006;2022-07-25T13:12:06;27.70;99.90
14908;DHT22;7545;52.092;7.006;2022-07-25T13:14:32;27.70;99.90
14908;DHT22;7545;52.092;7.006;2022-07-25T13:16:58;27.60;99.90
14908;DHT22;7545;52.092;7.006;2022-07-25T13:19:24;27.60;99.90
14908;DHT22;7545;52.092;7.006;2022-07-25T13:21:49;27.60;99.90
14908;DHT22;7545;52.092;7.006;2022-07-25T13:24:15;27.60;99.90
14908;DHT22;7545;52.092;7.006;2022-07-25T13:26:41;27.60;99.90
14908;DHT22;7545;52.092;7.006;2022-07-25T13:29:06;27.60;99.90
14908;DHT22;7545;52.092;7.006;2022-07-25T13:31:33;27.60;99.90
14908;DHT22;7545;52.092;7.006;2022-07-25T13:34:00;27.60;99.90
14908;DHT22;7545;52.092;7.006;2022-07-25T13:36:26;27.50;99.90
14908;DHT22;7545;52.092;7.006;2022-07-25T13:38:51;27.50;99.90
14908;DHT22;7545;52.092;7.006;2022-07-25T13:41:17;27.50;99.90
14908;DHT22;7545;52.092;7.006;2022-07-25T13:43:42;27.60;99.90
14908;DHT22;7545;52.092;7.006;2022-07-25T13:46:08;27.50;99.90
14908;DHT22;7545;52.092;7.006;2022-07-25T13:48:34;27.50;99.90
14908;DHT22;7545;52.092;7.006;2022-07-25T13:51:01;27.40;99.90
14908;DHT22;7545;52.092;7.006;2022-07-25T13:53:26;27.30;99.90
14908;DHT22;7545;52.092;7.006;2022-07-25T13:55:52;27.30;99.90
14908;DHT22;7545;52.092;7.006;2022-07-25T13:58:18;27.30;99.90
14908;DHT22;7545;52.092;7.006;2022-07-25T14:00:44;27.20;99.90
14908;DHT22;7545;52.092;7.006;2022-07-25T14:03:10;27.10;99.90
14908;DHT22;7545;52.092;7.006;2022-07-25T14:05:38;27.10;99.90
14908;DHT22;7545;52.092;7.006;2022-07-25T14:08:04;27.00;99.90
14908;DHT22;7545;52.092;7.006;2022-07-25T14:10:30;27.00;99.90
14908;DHT22;7545;52.092;7.006;2022-07-25T14:12:55;26.90;99.90
14908;DHT22;7545;52.092;7.006;2022-07-25T14:15:21;26.80;99.90
14908;DHT22;7545;52.092;7.006;2022-07-25T14:17:47;26.80;99.90
14908;DHT22;7545;52.092;7.006;2022-07-25T14:20:12;26.80;99.90
14908;DHT22;7545;52.092;7.006;2022-07-25T14:22:38;26.70;99.90
14908;DHT22;7545;52.092;7.006;2022-07-25T14:25:06;26.70;99.90
14908;DHT22;7545;52.092;7.006;2022-07-25T14:27:32;26.60;99.90
14908;DHT22;7545;52.092;7.006;2022-07-25T14:29:58;26.50;99.90
14908;DHT22;7545;52.092;7.006;2022-07-25T14:32:24;26.40;99.90
14908;DHT22;7545;52.092;7.006;2022-07-25T14:34:49;26.20;99.90
14908;DHT22;7545;52.092;7.006;2022-07-25T14:37:20;26.10;99.90
14908;DHT22;7545;52.092;7.006;2022-07-25T14:39:48;26.10;99.90
14908;DHT22;7545;52.092;7.006;2022-07-25T14:42:14;25.90;99.90
14908;DHT22;7545;52.092;7.006;2022-07-25T14:44:40;25.90;99.90
14908;DHT22;7545;52.092;7.006;2022-07-25T14:47:06;25.80;99.90
14908;DHT22;7545;52.092;7.006;2022-07-25T14:49:31;25.70;99.90
14908;DHT22;7545;52.092;7.006;2022-07-25T14:51:57;25.60;99.90
14908;DHT22;7545;52.092;7.006;2022-07-25T14:54:23;25.50;99.90
14908;DHT22;7545;52.092;7.006;2022-07-25T14:56:53;25.40;99.90
14908;DHT22;7545;52.092;7.006;2022-07-25T14:59:19;25.40;99.90
14908;DHT22;7545;52.092;7.006;2022-07-25T15:01:45;25.30;99.90
14908;DHT22;7545;52.092;7.006;2022-07-25T15:04:11;25.30;99.90
14908;DHT22;7545;52.092;7.006;2022-07-25T15:06:37;25.30;99.90
14908;DHT22;7545;52.092;7.006;2022-07-25T15:09:03;25.30;99.90
14908;DHT22;7545;52.092;7.006;2022-07-25T15:11:29;25.40;99.90
14908;DHT22;7545;52.092;7.006;2022-07-25T15:13:55;25.40;99.90
14908;DHT22;7545;52.092;7.006;2022-07-25T15:16:21;25.50;99.90
14908;DHT22;7545;52.092;7.006;2022-07-25T15:18:47;25.50;99.90
14908;DHT22;7545;52.092;7.006;2022-07-25T15:21:13;25.60;99.90
14908;DHT22;7545;52.092;7.006;2022-07-25T15:23:39;25.60;99.90
14908;DHT22;7545;52.092;7.006;2022-07-25T15:26:05;25.60;99.90
14908;DHT22;7545;52.092;7.006;2022-07-25T15:28:36;25.60;99.90
14908;DHT22;7545;52.092;7.006;2022-07-25T15:31:03;25.60;99.90
14908;DHT22;7545;52.092;7.006;2022-07-25T15:33:28;25.60;99.90
14908;DHT22;7545;52.092;7.006;2022-07-25T15:35:54;25.60;99.90
14908;DHT22;7545;52.092;7.006;2022-07-25T15:38:20;25.70;99.90
14908;DHT22;7545;52.092;7.006;2022-07-25T15:40:46;25.70;99.90
14908;DHT22;7545;52.092;7.006;2022-07-25T15:43:12;25.70;99.90
14908;DHT22;7545;52.092;7.006;2022-07-25T15:45:40;25.70;99.90
14908;DHT22;7545;52.092;7.006;2022-07-25T15:48:07;25.60;99.90
14908;DHT22;7545;52.092;7.006;2022-07-25T15:50:38;25.60;99.90
14908;DHT22;7545;52.092;7.006;2022-07-25T15:53:05;25.60;99.90
14908;DHT22;7545;52.092;7.006;2022-07-25T15:55:31;25.60;99.90
14908;DHT22;7545;52.092;7.006;2022-07-25T15:57:58;25.50;99.90
14908;DHT22;7545;52.092;7.006;2022-07-25T16:00:24;25.50;99.90